sensor_id;sensor_type;location;lat;lon;timestamp;pressure;altitude;pressure_sealevel;temperature;humidity
69221;BME280;56331;51.992;20.910;2023-04-10T00:00:33;100970.88;;;22.39;41.79
69221;BME280;56331;51.992;20.910;2023-04-10T00:03:07;100973.91;;;22.40;41.77
69221;BME280;56331;51.992;20.910;2023-04-10T00:05:33;100969.98;;;22.41;41.69
69221;BME280;56331;51.992;20.910;2023-04-10T00:08:00;100969.75;;;22.40;41.73
69221;BME280;56331;51.992;20.910;2023-04-10T00:10:28;100971.13;;;22.40;41.74
69221;BME280;56331;51.992;20.910;2023-04-10T00:12:57;100965.90;;;22.38;41.62
69221;BME280;56331;51.992;20.910;2023-04-10T00:15:25;100967.05;;;22.37;41.62
69221;BME280;56331;51.992;20.910;2023-04-10T00:17:52;100965.67;;;22.37;41.55
69221;BME280;56331;51.992;20.910;2023-04-10T00:20:20;100961.24;;;22.36;41.58
69221;BME280;56331;51.992;20.910;2023-04-10T00:22:49;100966.22;;;22.37;41.65
69221;BME280;56331;51.992;20.910;2023-04-10T00:25:16;100964.02;;;22.36;41.58
69221;BME280;56331;51.992;20.910;2023-04-10T00:27:42;100962.63;;;22.36;41.55
69221;BME280;56331;51.992;20.910;2023-04-10T00:30:09;100963.21;;;22.36;41.64
69221;BME280;56331;51.992;20.910;2023-04-10T00:32:36;100963.44;;;22.37;41.68
69221;BME280;56331;51.992;20.910;2023-04-10T00:35:04;100957.34;;;22.37;41.69
69221;BME280;56331;51.992;20.910;2023-04-10T00:37:30;100958.95;;;22.38;41.78
69221;BME280;56331;51.992;20.910;2023-04-10T00:39:57;100968.67;;;22.38;41.84
69221;BME280;56331;51.992;20.910;2023-04-10T00:42:23;100966.97;;;22.40;41.92
69221;BME280;56331;51.992;20.910;2023-04-10T00:44:50;100961.16;;;22.39;42.04
69221;BME280;56331;51.992;20.910;2023-04-10T00:47:16;100964.52;;;22.38;42.12
69221;BME280;56331;51.992;20.910;2023-04-10T00:49:43;100960.12;;;22.37;42.18
69221;BME280;56331;51.992;20.910;2023-04-10T00:52:10;100961.50;;;22.37;42.27
69221;BME280;56331;51.992;20.910;2023-04-10T00:54:38;100969.57;;;22.36;42.27
69221;BME280;56331;51.992;20.910;2023-04-10T00:57:05;100971.22;;;22.37;42.25
69221;BME280;56331;51.992;20.910;2023-04-10T00:59:32;100973.16;;;22.37;42.39
69221;BME280;56331;51.992;20.910;2023-04-10T01:02:01;100981.48;;;22.37;42.40
69221;BME280;56331;51.992;20.910;2023-04-10T01:04:28;100978.48;;;22.36;42.39
69221;BME280;56331;51.992;20.910;2023-04-10T01:07:16;100977.67;;;22.35;42.38
69221;BME280;56331;51.992;20.910;2023-04-10T01:18:03;100984.61;;;22.35;42.25
69221;BME280;56331;51.992;20.910;2023-04-10T01:20:31;100984.03;;;22.36;42.23
69221;BME280;56331;51.992;20.910;2023-04-10T01:26:05;100979.05;;;22.35;42.21
69221;BME280;56331;51.992;20.910;2023-04-10T01:28:55;100970.15;;;22.36;42.19
69221;BME280;56331;51.992;20.910;2023-04-10T01:34:07;100973.24;;;22.34;42.08
69221;BME280;56331;51.992;20.910;2023-04-10T01:36:37;100975.47;;;22.35;42.09
69221;BME280;56331;51.992;20.910;2023-04-10T01:39:03;100978.24;;;22.35;42.03
69221;BME280;56331;51.992;20.910;2023-04-10T01:41:32;100977.41;;;22.34;42.12
69221;BME280;56331;51.992;20.910;2023-04-10T01:43:59;100976.59;;;22.34;42.06
69221;BME280;56331;51.992;20.910;2023-04-10T01:46:28;100971.63;;;22.33;41.97
69221;BME280;56331;51.992;20.910;2023-04-10T01:48:56;100977.17;;;22.33;42.01
69221;BME280;56331;51.992;20.910;2023-04-10T01:51:25;100971.63;;;22.33;41.96
69221;BME280;56331;51.992;20.910;2023-04-10T01:53:52;100983.30;;;22.33;41.95
69221;BME280;56331;51.992;20.910;2023-04-10T01:56:19;100982.72;;;22.33;41.90
69221;BME280;56331;51.992;20.910;2023-04-10T01:58:46;100980.76;;;22.34;41.84
69221;BME280;56331;51.992;20.910;2023-04-10T02:01:19;100981.56;;;22.34;41.80
69221;BME280;56331;51.992;20.910;2023-04-10T02:03:46;100976.02;;;22.34;41.67
69221;BME280;56331;51.992;20.910;2023-04-10T02:08:55;100971.45;;;22.38;40.85
69221;BME280;56331;51.992;20.910;2023-04-10T02:11:35;100972.52;;;22.40;40.53
69221;BME280;56331;51.992;20.910;2023-04-10T02:14:03;100963.03;;;22.41;40.26
69221;BME280;56331;51.992;20.910;2023-04-10T02:16:31;100969.08;;;22.43;40.13
69221;BME280;56331;51.992;20.910;2023-04-10T02:18:59;100965.73;;;22.43;39.87
69221;BME280;56331;51.992;20.910;2023-04-10T02:21:26;100967.92;;;22.44;39.66
69221;BME280;56331;51.992;20.910;2023-04-10T02:23:56;100962.37;;;22.44;39.53
69221;BME280;56331;51.992;20.910;2023-04-10T02:26:23;100966.80;;;22.45;39.37
69221;BME280;56331;51.992;20.910;2023-04-10T02:28:49;100974.55;;;22.45;39.26
69221;BME280;56331;51.992;20.910;2023-04-10T02:31:15;100977.91;;;22.45;39.04
69221;BME280;56331;51.992;20.910;2023-04-10T02:33:42;100980.09;;;22.45;38.99
69221;BME280;56331;51.992;20.910;2023-04-10T02:36:09;100976.74;;;22.46;38.88
69221;BME280;56331;51.992;20.910;2023-04-10T02:38:35;100982.30;;;22.46;38.67
69221;BME280;56331;51.992;20.910;2023-04-10T02:41:01;100980.42;;;22.44;38.54
69221;BME280;56331;51.992;20.910;2023-04-10T02:43:28;100985.66;;;22.45;38.44
69221;BME280;56331;51.992;20.910;2023-04-10T02:45:54;100985.66;;;22.45;38.31
69221;BME280;56331;51.992;20.910;2023-04-10T02:48:20;100982.30;;;22.46;38.16
69221;BME280;56331;51.992;20.910;2023-04-10T02:50:47;100981.23;;;22.44;38.02
69221;BME280;56331;51.992;20.910;2023-04-10T02:53:15;100982.30;;;22.46;37.98
69221;BME280;56331;51.992;20.910;2023-04-10T02:55:41;100976.52;;;22.45;37.82
69221;BME280;56331;51.992;20.910;2023-04-10T02:58:08;100972.09;;;22.44;37.74
69221;BME280;56331;51.992;20.910;2023-04-10T03:00:34;100974.86;;;22.44;37.66
69221;BME280;56331;51.992;20.910;2023-04-10T03:03:00;100978.22;;;22.43;37.54
69221;BME280;56331;51.992;20.910;2023-04-10T03:05:27;100982.47;;;22.41;37.95
69221;BME280;56331;51.992;20.910;2023-04-10T03:07:53;100974.45;;;22.39;38.08
69221;BME280;56331;51.992;20.910;2023-04-10T03:10:20;100980.36;;;22.38;38.29
69221;BME280;56331;51.992;20.910;2023-04-10T03:12:47;100985.33;;;22.38;38.34
69221;BME280;56331;51.992;20.910;2023-04-10T03:15:13;100985.64;;;22.37;38.39
69221;BME280;56331;51.992;20.910;2023-04-10T03:17:40;100982.64;;;22.36;38.33
69221;BME280;56331;51.992;20.910;2023-04-10T03:20:07;100974.89;;;22.35;38.32
69221;BME280;56331;51.992;20.910;2023-04-10T03:22:34;100978.80;;;22.34;38.36
69221;BME280;56331;51.992;20.910;2023-04-10T03:25:01;100987.70;;;22.34;38.39
69221;BME280;56331;51.992;20.910;2023-04-10T03:27:28;100982.14;;;22.34;38.40
69221;BME280;56331;51.992;20.910;2023-04-10T03:29:56;100989.09;;;22.34;38.42
69221;BME280;56331;51.992;20.910;2023-04-10T03:32:22;100986.08;;;22.33;38.46
69221;BME280;56331;51.992;20.910;2023-04-10T03:34:49;100984.92;;;22.34;38.47
69221;BME280;56331;51.992;20.910;2023-04-10T03:37:15;100987.70;;;22.34;38.51
69221;BME280;56331;51.992;20.910;2023-04-10T03:39:41;100982.72;;;22.33;38.52
69221;BME280;56331;51.992;20.910;2023-04-10T03:42:08;100979.72;;;22.32;38.50
69221;BME280;56331;51.992;20.910;2023-04-10T03:44:35;100978.56;;;22.33;38.49
69221;BME280;56331;51.992;20.910;2023-04-10T03:47:01;100981.11;;;22.32;38.44
69221;BME280;56331;51.992;20.910;2023-04-10T03:49:28;100973.91;;;22.31;38.46
69221;BME280;56331;51.992;20.910;2023-04-10T03:51:55;100978.33;;;22.32;38.57
69221;BME280;56331;51.992;20.910;2023-04-10T03:54:21;100978.91;;;22.32;38.51
69221;BME280;56331;51.992;20.910;2023-04-10T03:56:47;100980.53;;;22.33;38.46
69221;BME280;56331;51.992;20.910;2023-04-10T03:59:14;100982.49;;;22.32;38.47
69221;BME280;56331;51.992;20.910;2023-04-10T04:01:41;100980.53;;;22.33;38.58
69221;BME280;56331;51.992;20.910;2023-04-10T04:04:07;100977.17;;;22.33;38.46
69221;BME280;56331;51.992;20.910;2023-04-10T04:06:34;100984.61;;;22.35;38.19
69221;BME280;56331;51.992;20.910;2023-04-10T04:09:00;100983.94;;;22.38;37.91
69221;BME280;56331;51.992;20.910;2023-04-10T04:11:27;100986.72;;;22.38;37.62
69221;BME280;56331;51.992;20.910;2023-04-10T04:13:53;100986.95;;;22.39;37.42
69221;BME280;56331;51.992;20.910;2023-04-10T04:16:21;100985.02;;;22.40;37.35
69221;BME280;56331;51.992;20.910;2023-04-10T04:18:47;100983.86;;;22.41;37.16
69221;BME280;56331;51.992;20.910;2023-04-10T04:21:14;100987.45;;;22.41;37.01
69221;BME280;56331;51.992;20.910;2023-04-10T04:23:40;100993.00;;;22.41;36.90
69221;BME280;56331;51.992;20.910;2023-04-10T04:26:07;100992.67;;;22.43;36.81
69221;BME280;56331;51.992;20.910;2023-04-10T04:28:33;100999.04;;;22.43;36.71
69221;BME280;56331;51.992;20.910;2023-04-10T04:31:03;100992.41;;;22.42;36.63
69221;BME280;56331;51.992;20.910;2023-04-10T04:33:30;100997.97;;;22.42;36.49
69221;BME280;56331;51.992;20.910;2023-04-10T04:35:56;100996.03;;;22.42;36.42
69221;BME280;56331;51.992;20.910;2023-04-10T04:38:23;101000.20;;;22.42;36.40
69221;BME280;56331;51.992;20.910;2023-04-10T04:40:49;101004.36;;;22.42;36.28
69221;BME280;56331;51.992;20.910;2023-04-10T04:43:16;101004.68;;;22.41;36.19
69221;BME280;56331;51.992;20.910;2023-04-10T04:45:42;101008.52;;;22.42;36.24
69221;BME280;56331;51.992;20.910;2023-04-10T04:48:11;101013.81;;;22.41;36.13
69221;BME280;56331;51.992;20.910;2023-04-10T04:50:39;101007.69;;;22.42;36.12
69221;BME280;56331;51.992;20.910;2023-04-10T04:53:07;101007.45;;;22.41;36.10
69221;BME280;56331;51.992;20.910;2023-04-10T04:55:34;101006.87;;;22.41;36.10
69221;BME280;56331;51.992;20.910;2023-04-10T04:58:01;101011.04;;;22.41;36.05
69221;BME280;56331;51.992;20.910;2023-04-10T05:00:27;101013.23;;;22.42;36.11
69221;BME280;56331;51.992;20.910;2023-04-10T05:02:59;101018.88;;;22.39;36.05
69221;BME280;56331;51.992;20.910;2023-04-10T05:05:24;101013.58;;;22.40;36.09
69221;BME280;56331;51.992;20.910;2023-04-10T05:07:53;101019.95;;;22.41;36.12
69221;BME280;56331;51.992;20.910;2023-04-10T05:10:19;101021.33;;;22.41;36.08
69221;BME280;56331;51.992;20.910;2023-04-10T05:12:45;101028.27;;;22.41;36.04
69221;BME280;56331;51.992;20.910;2023-04-10T05:15:14;101029.66;;;22.41;36.05
69221;BME280;56331;51.992;20.910;2023-04-10T05:17:40;101039.38;;;22.41;36.05
69221;BME280;56331;51.992;20.910;2023-04-10T05:20:07;101042.16;;;22.41;36.08
69221;BME280;56331;51.992;20.910;2023-04-10T05:22:40;101042.16;;;22.41;36.15
69221;BME280;56331;51.992;20.910;2023-04-10T05:25:05;101051.88;;;22.41;36.22
69221;BME280;56331;51.992;20.910;2023-04-10T05:27:31;101043.23;;;22.42;36.29
69221;BME280;56331;51.992;20.910;2023-04-10T05:29:58;101047.94;;;22.42;36.34
69221;BME280;56331;51.992;20.910;2023-04-10T05:32:27;101053.49;;;22.42;36.43
69221;BME280;56331;51.992;20.910;2023-04-10T05:34:53;101057.92;;;22.43;36.44
69221;BME280;56331;51.992;20.910;2023-04-10T05:37:20;101055.72;;;22.42;36.55
69221;BME280;56331;51.992;20.910;2023-04-10T05:39:46;101056.27;;;22.42;36.70
69221;BME280;56331;51.992;20.910;2023-04-10T05:42:13;101061.82;;;22.42;36.77
69221;BME280;56331;51.992;20.910;2023-04-10T05:44:39;101050.72;;;22.42;36.95
69221;BME280;56331;51.992;20.910;2023-04-10T05:47:05;101050.17;;;22.42;37.02
69221;BME280;56331;51.992;20.910;2023-04-10T05:49:34;101050.17;;;22.42;37.25
69221;BME280;56331;51.992;20.910;2023-04-10T05:52:01;101045.16;;;22.42;37.36
69221;BME280;56331;51.992;20.910;2023-04-10T05:54:27;101050.98;;;22.43;37.42
69221;BME280;56331;51.992;20.910;2023-04-10T05:56:53;101050.98;;;22.43;37.47
69221;BME280;56331;51.992;20.910;2023-04-10T05:59:20;101055.14;;;22.43;37.55
69221;BME280;56331;51.992;20.910;2023-04-10T06:01:46;101058.73;;;22.43;37.61
69221;BME280;56331;51.992;20.910;2023-04-10T06:04:13;101059.05;;;22.42;37.74
69221;BME280;56331;51.992;20.910;2023-04-10T06:06:39;101057.66;;;22.42;37.79
69221;BME280;56331;51.992;20.910;2023-04-10T06:09:06;101059.89;;;22.42;37.80
69221;BME280;56331;51.992;20.910;2023-04-10T06:11:32;101055.72;;;22.42;37.81
69221;BME280;56331;51.992;20.910;2023-04-10T06:13:58;101059.30;;;22.43;37.82
69221;BME280;56331;51.992;20.910;2023-04-10T06:16:26;101059.05;;;22.42;37.89
69221;BME280;56331;51.992;20.910;2023-04-10T06:18:53;101062.08;;;22.43;37.96
69221;BME280;56331;51.992;20.910;2023-04-10T06:21:19;101061.51;;;22.43;37.96
69221;BME280;56331;51.992;20.910;2023-04-10T06:23:45;101059.30;;;22.43;38.00
69221;BME280;56331;51.992;20.910;2023-04-10T06:26:13;101059.30;;;22.43;38.01
69221;BME280;56331;51.992;20.910;2023-04-10T06:28:41;101057.34;;;22.43;38.54
69221;BME280;56331;51.992;20.910;2023-04-10T06:31:08;101056.77;;;22.44;38.94
69221;BME280;56331;51.992;20.910;2023-04-10T06:33:35;101065.59;;;22.46;38.70
69221;BME280;56331;51.992;20.910;2023-04-10T06:36:01;101066.97;;;22.46;38.47
69221;BME280;56331;51.992;20.910;2023-04-10T06:38:29;101071.14;;;22.46;38.47
69221;BME280;56331;51.992;20.910;2023-04-10T06:40:55;101069.17;;;22.46;38.49
69221;BME280;56331;51.992;20.910;2023-04-10T06:43:21;101069.44;;;22.47;38.49
69221;BME280;56331;51.992;20.910;2023-04-10T06:45:48;101065.02;;;22.46;38.59
69221;BME280;56331;51.992;20.910;2023-04-10T06:48:14;101070.25;;;22.48;38.65
69221;BME280;56331;51.992;20.910;2023-04-10T07:04:38;101077.52;;;22.55;38.94
69221;BME280;56331;51.992;20.910;2023-04-10T07:07:04;101075.14;;;22.51;38.93
69221;BME280;56331;51.992;20.910;2023-04-10T07:09:33;101073.75;;;22.51;38.95
69221;BME280;56331;51.992;20.910;2023-04-10T07:11:59;101071.78;;;22.52;38.91
69221;BME280;56331;51.992;20.910;2023-04-10T07:14:26;101070.08;;;22.53;38.95
69221;BME280;56331;51.992;20.910;2023-04-10T07:16:52;101075.63;;;22.53;38.99
69221;BME280;56331;51.992;20.910;2023-04-10T07:19:21;101071.20;;;22.52;39.01
69221;BME280;56331;51.992;20.910;2023-04-10T07:21:48;101071.70;;;22.54;39.06
69221;BME280;56331;51.992;20.910;2023-04-10T07:24:15;101073.09;;;22.54;39.15
69221;BME280;56331;51.992;20.910;2023-04-10T07:26:47;101069.19;;;22.55;39.18
69221;BME280;56331;51.992;20.910;2023-04-10T07:29:12;101072.77;;;22.56;39.27
69221;BME280;56331;51.992;20.910;2023-04-10T07:31:39;101071.62;;;22.57;39.38
69221;BME280;56331;51.992;20.910;2023-04-10T07:34:05;101079.63;;;22.58;39.67
69221;BME280;56331;51.992;20.910;2023-04-10T07:36:32;101085.42;;;22.59;39.98
69221;BME280;56331;51.992;20.910;2023-04-10T07:38:58;101074.31;;;22.59;40.14
69221;BME280;56331;51.992;20.910;2023-04-10T07:41:25;101073.19;;;22.60;40.36
69221;BME280;56331;51.992;20.910;2023-04-10T07:43:51;101073.41;;;22.61;40.51
69221;BME280;56331;51.992;20.910;2023-04-10T07:46:18;101073.33;;;22.64;40.67
69221;BME280;56331;51.992;20.910;2023-04-10T07:48:44;101065.49;;;22.66;40.77
69221;BME280;56331;51.992;20.910;2023-04-10T07:51:12;101069.89;;;22.67;41.17
69221;BME280;56331;51.992;20.910;2023-04-10T07:53:39;101069.58;;;22.68;41.33
69221;BME280;56331;51.992;20.910;2023-04-10T07:56:06;101072.00;;;22.70;41.82
69221;BME280;56331;51.992;20.910;2023-04-10T07:58:36;101068.56;;;22.73;41.88
69221;BME280;56331;51.992;20.910;2023-04-10T08:01:02;101072.41;;;22.75;42.00
69221;BME280;56331;51.992;20.910;2023-04-10T08:03:36;101066.55;;;22.76;42.01
69221;BME280;56331;51.992;20.910;2023-04-10T08:06:00;101069.78;;;22.78;42.07
69221;BME280;56331;51.992;20.910;2023-04-10T08:08:26;101065.06;;;22.79;42.05
69221;BME280;56331;51.992;20.910;2023-04-10T08:10:53;101065.30;;;22.80;42.05
69221;BME280;56331;51.992;20.910;2023-04-10T08:13:19;101062.75;;;22.81;42.18
69221;BME280;56331;51.992;20.910;2023-04-10T08:15:45;101058.58;;;22.81;42.25
69221;BME280;56331;51.992;20.910;2023-04-10T08:18:11;101058.50;;;22.83;42.30
69221;BME280;56331;51.992;20.910;2023-04-10T08:20:38;101058.17;;;22.85;42.39
69221;BME280;56331;51.992;20.910;2023-04-10T08:23:04;101057.02;;;22.86;42.36
69221;BME280;56331;51.992;20.910;2023-04-10T08:25:31;101054.50;;;22.87;42.47
69221;BME280;56331;51.992;20.910;2023-04-10T08:27:57;101050.83;;;22.89;42.46
69221;BME280;56331;51.992;20.910;2023-04-10T08:30:25;101048.05;;;22.89;42.53
69221;BME280;56331;51.992;20.910;2023-04-10T08:32:51;101052.09;;;22.91;42.49
69221;BME280;56331;51.992;20.910;2023-04-10T08:35:18;101050.97;;;22.92;41.98
69221;BME280;56331;51.992;20.910;2023-04-10T08:37:46;101057.02;;;22.94;41.78
69221;BME280;56331;51.992;20.910;2023-04-10T08:40:12;101059.22;;;22.95;41.62
69221;BME280;56331;51.992;20.910;2023-04-10T08:42:39;101055.05;;;22.95;41.23
69221;BME280;56331;51.992;20.910;2023-04-10T08:45:06;101051.41;;;22.97;41.24
69221;BME280;56331;51.992;20.910;2023-04-10T08:47:37;101043.61;;;22.97;41.05
69221;BME280;56331;51.992;20.910;2023-04-10T08:50:06;101041.39;;;22.96;40.84
69221;BME280;56331;51.992;20.910;2023-04-10T08:52:36;101041.68;;;22.97;40.90
69221;BME280;56331;51.992;20.910;2023-04-10T08:55:06;101042.23;;;22.97;40.68
69221;BME280;56331;51.992;20.910;2023-04-10T08:57:36;101043.53;;;22.99;40.67
69221;BME280;56331;51.992;20.910;2023-04-10T09:00:04;101035.77;;;22.99;40.52
69221;BME280;56331;51.992;20.910;2023-04-10T09:02:30;101041.01;;;23.00;40.46
69221;BME280;56331;51.992;20.910;2023-04-10T09:05:01;101036.27;;;23.01;40.31
69221;BME280;56331;51.992;20.910;2023-04-10T09:07:29;101035.10;;;23.02;40.21
69221;BME280;56331;51.992;20.910;2023-04-10T09:09:59;101032.91;;;23.01;39.88
69221;BME280;56331;51.992;20.910;2023-04-10T09:12:26;101029.55;;;23.02;40.04
69221;BME280;56331;51.992;20.910;2023-04-10T09:14:52;101030.13;;;23.01;40.01
69221;BME280;56331;51.992;20.910;2023-04-10T09:17:21;101026.77;;;23.02;40.02
69221;BME280;56331;51.992;20.910;2023-04-10T09:19:50;101021.79;;;23.01;39.82
69221;BME280;56331;51.992;20.910;2023-04-10T09:22:17;101024.25;;;23.03;39.79
69221;BME280;56331;51.992;20.910;2023-04-10T09:24:46;101026.22;;;23.02;39.50
69221;BME280;56331;51.992;20.910;2023-04-10T09:27:32;101021.47;;;23.03;39.30
69221;BME280;56331;51.992;20.910;2023-04-10T09:30:00;101015.33;;;23.03;39.25
69221;BME280;56331;51.992;20.910;2023-04-10T09:32:41;101023.09;;;23.04;39.18
69221;BME280;56331;51.992;20.910;2023-04-10T09:35:06;101011.39;;;23.04;39.42
69221;BME280;56331;51.992;20.910;2023-04-10T09:37:35;101018.83;;;23.06;39.54
69221;BME280;56331;51.992;20.910;2023-04-10T09:40:02;101016.05;;;23.06;39.61
69221;BME280;56331;51.992;20.910;2023-04-10T09:42:36;101013.04;;;23.05;39.69
69221;BME280;56331;51.992;20.910;2023-04-10T09:45:03;101007.13;;;23.07;39.68
69221;BME280;56331;51.992;20.910;2023-04-10T09:47:30;100999.05;;;23.08;39.79
69221;BME280;56331;51.992;20.910;2023-04-10T09:50:00;101002.41;;;23.07;39.98
69221;BME280;56331;51.992;20.910;2023-04-10T09:55:01;101004.26;;;23.09;40.17
69221;BME280;56331;51.992;20.910;2023-04-10T09:57:28;101001.48;;;23.09;40.26
69221;BME280;56331;51.992;20.910;2023-04-10T10:00:00;100998.70;;;23.09;40.38
69221;BME280;56331;51.992;20.910;2023-04-10T10:02:29;101002.87;;;23.09;40.37
69221;BME280;56331;51.992;20.910;2023-04-10T10:04:57;100993.14;;;23.09;40.39
69221;BME280;56331;51.992;20.910;2023-04-10T10:07:26;100994.89;;;23.08;40.50
69221;BME280;56331;51.992;20.910;2023-04-10T10:09:53;100988.75;;;23.08;40.52
69221;BME280;56331;51.992;20.910;2023-04-10T10:12:45;100986.77;;;23.09;40.57
69221;BME280;56331;51.992;20.910;2023-04-10T10:17:59;100977.05;;;23.09;40.50
69221;BME280;56331;51.992;20.910;2023-04-10T10:20:22;100975.08;;;23.09;40.49
69221;BME280;56331;51.992;20.910;2023-04-10T10:22:50;100974.27;;;23.09;40.45
69221;BME280;56331;51.992;20.910;2023-04-10T10:25:18;100961.19;;;23.09;40.43
69221;BME280;56331;51.992;20.910;2023-04-10T10:27:48;100961.19;;;23.09;40.43
69221;BME280;56331;51.992;20.910;2023-04-10T10:30:16;100955.89;;;23.10;40.33
69221;BME280;56331;51.992;20.910;2023-04-10T10:32:44;100957.27;;;23.10;40.31
69221;BME280;56331;51.992;20.910;2023-04-10T10:35:11;100949.52;;;23.10;40.25
69221;BME280;56331;51.992;20.910;2023-04-10T10:37:38;100958.89;;;23.11;40.23
69221;BME280;56331;51.992;20.910;2023-04-10T10:40:19;100958.66;;;23.10;40.19
69221;BME280;56331;51.992;20.910;2023-04-10T10:42:56;100948.13;;;23.10;40.19
69221;BME280;56331;51.992;20.910;2023-04-10T10:45:29;100947.55;;;23.10;40.10
69221;BME280;56331;51.992;20.910;2023-04-10T10:47:53;100950.91;;;23.10;40.10
69221;BME280;56331;51.992;20.910;2023-04-10T10:50:20;100945.58;;;23.11;40.11
69221;BME280;56331;51.992;20.910;2023-04-10T10:52:52;100946.73;;;23.10;40.06
69221;BME280;56331;51.992;20.910;2023-04-10T10:57:54;100941.98;;;23.10;39.98
69221;BME280;56331;51.992;20.910;2023-04-10T11:00:23;100939.21;;;23.10;39.99
69221;BME280;56331;51.992;20.910;2023-04-10T11:11:20;100938.40;;;23.10;38.72
69221;BME280;56331;51.992;20.910;2023-04-10T11:19:06;100917.56;;;23.10;38.54
69221;BME280;56331;51.992;20.910;2023-04-10T11:21:33;100910.03;;;23.10;38.45
69221;BME280;56331;51.992;20.910;2023-04-10T11:24:02;100912.55;;;23.09;38.38
69221;BME280;56331;51.992;20.910;2023-04-10T11:26:40;100913.39;;;23.10;38.35
69221;BME280;56331;51.992;20.910;2023-04-10T11:31:46;100909.45;;;23.11;38.15
69221;BME280;56331;51.992;20.910;2023-04-10T11:34:14;100916.39;;;23.11;38.14
69221;BME280;56331;51.992;20.910;2023-04-10T11:36:43;100905.51;;;23.12;38.02
69221;BME280;56331;51.992;20.910;2023-04-10T11:39:15;100907.16;;;23.13;37.83
69221;BME280;56331;51.992;20.910;2023-04-10T11:41:43;100896.95;;;23.11;37.86
69221;BME280;56331;51.992;20.910;2023-04-10T11:44:13;100894.97;;;23.11;37.86
69221;BME280;56331;51.992;20.910;2023-04-10T11:46:41;100889.99;;;23.11;38.21
69221;BME280;56331;51.992;20.910;2023-04-10T11:49:09;100884.66;;;23.12;38.37
69221;BME280;56331;51.992;20.910;2023-04-10T11:51:36;100885.50;;;23.12;38.91
69221;BME280;56331;51.992;20.910;2023-04-10T11:54:08;100882.14;;;23.13;39.68
69221;BME280;56331;51.992;20.910;2023-04-10T11:56:37;100879.49;;;23.17;40.13
69221;BME280;56331;51.992;20.910;2023-04-10T11:59:04;100876.12;;;23.17;40.33
69221;BME280;56331;51.992;20.910;2023-04-10T12:01:36;100872.77;;;23.18;40.50
69221;BME280;56331;51.992;20.910;2023-04-10T12:04:02;100873.70;;;23.15;41.31
69221;BME280;56331;51.992;20.910;2023-04-10T12:06:30;100869.05;;;23.13;41.41
69221;BME280;56331;51.992;20.910;2023-04-10T12:08:56;100867.18;;;23.11;41.90
69221;BME280;56331;51.992;20.910;2023-04-10T12:11:24;100857.81;;;23.10;41.86
69221;BME280;56331;51.992;20.910;2023-04-10T12:13:56;100850.37;;;23.08;42.15
69221;BME280;56331;51.992;20.910;2023-04-10T12:16:20;100851.19;;;23.08;42.01
69221;BME280;56331;51.992;20.910;2023-04-10T12:18:48;100848.19;;;23.07;42.37
69221;BME280;56331;51.992;20.910;2023-04-10T12:21:15;100845.41;;;23.07;42.16
69221;BME280;56331;51.992;20.910;2023-04-10T12:23:42;100836.81;;;23.06;42.21
69221;BME280;56331;51.992;20.910;2023-04-10T12:28:40;100825.70;;;23.06;42.42
69221;BME280;56331;51.992;20.910;2023-04-10T12:31:07;100821.53;;;23.06;42.50
69221;BME280;56331;51.992;20.910;2023-04-10T12:33:33;100824.88;;;23.06;42.65
69221;BME280;56331;51.992;20.910;2023-04-10T12:36:00;100823.17;;;23.07;42.77
69221;BME280;56331;51.992;20.910;2023-04-10T12:38:42;100822.33;;;23.07;42.82
69221;BME280;56331;51.992;20.910;2023-04-10T12:41:07;100820.62;;;23.08;42.86
69221;BME280;56331;51.992;20.910;2023-04-10T12:43:38;100810.89;;;23.08;42.94
69221;BME280;56331;51.992;20.910;2023-04-10T12:46:06;100813.67;;;23.08;42.94
69221;BME280;56331;51.992;20.910;2023-04-10T12:48:34;100801.75;;;23.08;42.70
69221;BME280;56331;51.992;20.910;2023-04-10T12:51:00;100808.11;;;23.08;43.04
69221;BME280;56331;51.992;20.910;2023-04-10T12:53:30;100806.72;;;23.08;43.09
69221;BME280;56331;51.992;20.910;2023-04-10T12:56:04;100805.92;;;23.08;43.06
69221;BME280;56331;51.992;20.910;2023-04-10T12:58:33;100798.97;;;23.08;43.08
69221;BME280;56331;51.992;20.910;2023-04-10T13:01:04;100801.49;;;23.07;43.16
69221;BME280;56331;51.992;20.910;2023-04-10T13:03:36;100798.97;;;23.08;42.80
69221;BME280;56331;51.992;20.910;2023-04-10T13:06:06;100784.49;;;23.08;42.79
69221;BME280;56331;51.992;20.910;2023-04-10T13:08:36;100791.22;;;23.07;42.82
69221;BME280;56331;51.992;20.910;2023-04-10T13:11:04;100786.79;;;23.06;42.69
69221;BME280;56331;51.992;20.910;2023-04-10T13:13:32;100779.26;;;23.07;42.94
69221;BME280;56331;51.992;20.910;2023-04-10T13:15:58;100777.06;;;23.06;42.96
69221;BME280;56331;51.992;20.910;2023-04-10T13:18:25;100782.04;;;23.07;43.07
69221;BME280;56331;51.992;20.910;2023-04-10T13:20:52;100782.63;;;23.06;42.94
69221;BME280;56331;51.992;20.910;2023-04-10T13:23:19;100781.01;;;23.05;42.92
69221;BME280;56331;51.992;20.910;2023-04-10T13:25:45;100779.36;;;23.04;42.84
69221;BME280;56331;51.992;20.910;2023-04-10T13:28:12;100780.53;;;23.03;42.62
69221;BME280;56331;51.992;20.910;2023-04-10T13:30:41;100778.55;;;23.04;42.47
69221;BME280;56331;51.992;20.910;2023-04-10T13:33:08;100781.01;;;23.05;42.15
69221;BME280;56331;51.992;20.910;2023-04-10T13:35:34;100781.23;;;23.06;41.55
69221;BME280;56331;51.992;20.910;2023-04-10T13:38:01;100787.05;;;23.07;41.04
69221;BME280;56331;51.992;20.910;2023-04-10T13:40:27;100787.86;;;23.08;40.70